createdAt,value
2019-01-23T00:00:08.811Z,0
2019-01-23T00:00:49.492Z,0
2019-01-23T00:03:20.158Z,0
2019-01-23T00:04:00.749Z,0
2019-01-23T00:04:41.353Z,0
2019-01-23T00:05:22.013Z,0
2019-01-23T00:06:02.601Z,0
2019-01-23T00:06:43.204Z,0
2019-01-23T00:07:23.815Z,0
2019-01-23T00:08:04.418Z,0
2019-01-23T00:08:45.022Z,0
2019-01-23T00:09:25.649Z,0
2019-01-23T00:10:06.223Z,0
2019-01-23T00:10:46.818Z,0
2019-01-23T00:11:27.433Z,0
2019-01-23T00:12:08.030Z,0
2019-01-23T00:12:48.629Z,0
2019-01-23T00:13:29.229Z,0
2019-01-23T00:14:09.839Z,0
2019-01-23T00:14:50.439Z,0
2019-01-23T00:15:31.057Z,0
2019-01-23T00:16:11.659Z,0
2019-01-23T00:16:52.255Z,0
2019-01-23T00:17:32.849Z,0
2019-01-23T00:18:13.441Z,0
2019-01-23T00:18:54.037Z,0
2019-01-23T00:19:34.679Z,0
2019-01-23T00:20:15.249Z,0
2019-01-23T00:20:55.857Z,0
2019-01-23T00:21:36.461Z,0
2019-01-23T00:22:17.081Z,0
2019-01-23T00:22:57.697Z,0
2019-01-23T00:23:38.299Z,0
2019-01-23T00:24:18.899Z,0
2019-01-23T00:24:59.505Z,0
2019-01-23T00:25:40.121Z,0
2019-01-23T00:26:20.719Z,0
2019-01-23T00:27:01.333Z,0
2019-01-23T00:27:41.917Z,0
2019-01-23T00:28:22.522Z,0
2019-01-23T00:29:03.134Z,0
2019-01-23T00:29:43.767Z,0
2019-01-23T00:30:24.377Z,0
2019-01-23T00:31:04.972Z,0
2019-01-23T00:31:45.599Z,0
2019-01-23T00:32:26.201Z,0
2019-01-23T00:33:06.803Z,0
2019-01-23T00:33:47.423Z,0
2019-01-23T00:34:28.049Z,0
2019-01-23T00:35:08.686Z,0
2019-01-23T00:35:49.318Z,0
2019-01-23T00:36:29.917Z,0
2019-01-23T00:37:10.533Z,0
2019-01-23T00:37:51.130Z,0
2019-01-23T00:38:31.757Z,0
2019-01-23T00:39:12.375Z,0
2019-01-23T00:39:52.991Z,0
2019-01-23T00:40:33.592Z,0
2019-01-23T00:41:14.197Z,0
2019-01-23T00:41:54.801Z,0
2019-01-23T00:42:35.394Z,0
2019-01-23T00:43:15.987Z,0
2019-01-23T00:43:56.588Z,0
2019-01-23T00:44:37.238Z,0
2019-01-23T00:45:17.849Z,0
2019-01-23T00:45:58.467Z,0
2019-01-23T00:46:39.081Z,0
2019-01-23T00:47:19.697Z,0
2019-01-23T00:48:00.298Z,0
2019-01-23T00:48:40.889Z,0
2019-01-23T00:49:21.496Z,0
2019-01-23T00:50:02.101Z,0
2019-01-23T00:50:42.709Z,0
2019-01-23T00:51:23.321Z,0
2019-01-23T00:52:03.924Z,0
2019-01-23T00:52:44.545Z,0
2019-01-23T00:53:25.151Z,0
2019-01-23T00:54:05.747Z,0
2019-01-23T00:54:46.368Z,0
2019-01-23T00:55:26.987Z,0
2019-01-23T00:56:07.619Z,0
2019-01-23T00:56:48.235Z,0
2019-01-23T00:57:28.837Z,0
2019-01-23T00:58:09.427Z,0
2019-01-23T00:58:50.035Z,0
2019-01-23T00:59:30.636Z,0
2019-01-23T01:00:11.238Z,0
2019-01-23T01:00:51.830Z,0
2019-01-23T01:01:32.429Z,0
2019-01-23T01:02:13.045Z,0
2019-01-23T01:02:53.649Z,0
2019-01-23T01:03:34.259Z,0
2019-01-23T01:04:14.881Z,0
2019-01-23T01:04:55.502Z,0
2019-01-23T01:05:36.101Z,0
2019-01-23T01:06:16.726Z,0
2019-01-23T01:06:57.355Z,0
2019-01-23T01:07:37.975Z,0
2019-01-23T01:08:18.579Z,0
2019-01-23T01:08:59.213Z,0
2019-01-23T01:09:39.827Z,0
2019-01-23T01:10:20.445Z,0
2019-01-23T01:11:01.051Z,0
2019-01-23T01:11:41.645Z,0
2019-01-23T01:12:22.257Z,0
2019-01-23T01:13:02.893Z,0
2019-01-23T01:13:43.507Z,0
2019-01-23T01:14:24.133Z,0
2019-01-23T01:15:04.806Z,0
2019-01-23T01:15:45.420Z,0
2019-01-23T01:16:26.025Z,0
2019-01-23T01:17:06.631Z,0
2019-01-23T01:17:47.227Z,0
2019-01-23T01:18:27.837Z,0
2019-01-23T01:19:08.443Z,0
2019-01-23T01:19:49.037Z,0
2019-01-23T01:20:29.646Z,0
2019-01-23T01:21:10.302Z,0
2019-01-23T01:21:50.943Z,0
2019-01-23T01:22:31.556Z,0
2019-01-23T01:23:12.195Z,0
2019-01-23T01:23:52.823Z,0
2019-01-23T01:24:33.437Z,0
2019-01-23T01:25:14.041Z,0
2019-01-23T01:25:54.663Z,0
2019-01-23T01:26:35.263Z,0
2019-01-23T01:27:15.921Z,0
2019-01-23T01:27:56.527Z,0
2019-01-23T01:28:37.135Z,0
2019-01-23T01:29:17.751Z,0
2019-01-23T01:29:58.367Z,0
2019-01-23T01:30:39.015Z,0
2019-01-23T01:31:19.637Z,0
2019-01-23T01:32:00.251Z,0
2019-01-23T01:32:40.880Z,0
2019-01-23T01:33:21.511Z,0
2019-01-23T01:34:02.117Z,0
2019-01-23T01:34:42.731Z,0
2019-01-23T01:35:23.347Z,0
2019-01-23T01:36:03.961Z,0
2019-01-23T01:36:44.566Z,0
2019-01-23T01:37:25.181Z,0
2019-01-23T01:38:05.769Z,0
2019-01-23T01:38:46.385Z,0
2019-01-23T01:39:27.001Z,0
2019-01-23T01:40:07.603Z,0
2019-01-23T01:40:48.216Z,0
2019-01-23T01:41:28.866Z,0
2019-01-23T01:42:09.471Z,0
2019-01-23T01:42:50.054Z,0
2019-01-23T01:43:30.675Z,0
2019-01-23T01:44:11.307Z,0
2019-01-23T01:44:51.911Z,0
2019-01-23T01:45:32.515Z,0
2019-01-23T01:46:13.123Z,0
2019-01-23T01:46:53.743Z,0
2019-01-23T01:47:34.343Z,0
2019-01-23T01:48:14.971Z,0
2019-01-23T01:48:55.599Z,0
2019-01-23T01:49:36.227Z,0
2019-01-23T01:50:16.833Z,0
2019-01-23T01:50:57.441Z,0
2019-01-23T01:51:38.040Z,0
2019-01-23T01:52:18.637Z,0
2019-01-23T01:52:59.239Z,0
2019-01-23T01:53:39.853Z,0
2019-01-23T01:54:20.463Z,0
2019-01-23T01:55:01.079Z,0
2019-01-23T01:55:41.705Z,0
2019-01-23T01:56:22.327Z,0
2019-01-23T01:57:02.941Z,0
2019-01-23T01:57:43.551Z,0
2019-01-23T01:58:24.162Z,0
2019-01-23T01:59:04.774Z,0
2019-01-23T01:59:45.377Z,0
2019-01-23T02:00:26.005Z,0
2019-01-23T02:01:06.637Z,0
2019-01-23T02:01:47.241Z,0
2019-01-23T02:02:27.837Z,0
2019-01-23T02:03:08.443Z,0
2019-01-23T02:03:49.057Z,0
2019-01-23T02:04:29.666Z,0
2019-01-23T02:05:10.285Z,0
2019-01-23T02:05:50.891Z,0
2019-01-23T02:06:31.505Z,0
2019-01-23T02:07:12.125Z,0
2019-01-23T02:07:52.771Z,0
2019-01-23T02:08:33.381Z,0
2019-01-23T02:09:13.987Z,0
2019-01-23T02:09:54.607Z,0
2019-01-23T02:10:35.207Z,0
2019-01-23T02:11:15.817Z,0
2019-01-23T02:11:56.425Z,0
2019-01-23T02:12:37.029Z,0
2019-01-23T02:13:17.639Z,0
2019-01-23T02:13:58.259Z,0
2019-01-23T02:14:38.863Z,0
2019-01-23T02:15:19.471Z,0
2019-01-23T02:16:00.075Z,0
2019-01-23T02:16:40.675Z,0
2019-01-23T02:17:21.281Z,0
2019-01-23T02:18:01.875Z,0
2019-01-23T02:18:42.467Z,0
2019-01-23T02:19:23.073Z,0
2019-01-23T02:20:03.689Z,0
2019-01-23T02:20:44.298Z,0
2019-01-23T02:21:24.929Z,0
2019-01-23T02:22:05.539Z,0
2019-01-23T02:22:46.143Z,0
2019-01-23T02:23:26.743Z,0
2019-01-23T02:24:07.363Z,0
2019-01-23T02:24:47.983Z,0
2019-01-23T02:25:28.603Z,0
2019-01-23T02:26:09.215Z,0
2019-01-23T02:26:49.855Z,0
2019-01-23T02:27:30.457Z,0
2019-01-23T02:28:11.067Z,0
2019-01-23T02:28:51.709Z,0
2019-01-23T02:29:32.310Z,0
2019-01-23T02:30:12.928Z,0
2019-01-23T02:30:53.535Z,0
2019-01-23T02:31:34.142Z,0
2019-01-23T02:32:14.755Z,0
2019-01-23T02:32:55.370Z,0
2019-01-23T02:33:35.995Z,0
2019-01-23T02:34:16.618Z,0
2019-01-23T02:34:57.229Z,0
2019-01-23T02:35:37.851Z,0
2019-01-23T02:36:18.463Z,0
2019-01-23T02:36:59.083Z,0
2019-01-23T02:37:39.695Z,0
2019-01-23T02:38:20.296Z,0
2019-01-23T02:39:00.905Z,0
2019-01-23T02:39:41.525Z,0
2019-01-23T02:40:22.151Z,0
2019-01-23T02:41:02.752Z,0
2019-01-23T02:41:43.356Z,0
2019-01-23T02:42:23.967Z,0
2019-01-23T02:43:04.617Z,0
2019-01-23T02:43:45.233Z,0
2019-01-23T02:44:25.855Z,0
2019-01-23T02:45:06.516Z,0
2019-01-23T02:45:47.135Z,0
2019-01-23T02:46:27.742Z,0
2019-01-23T02:47:08.373Z,0
2019-01-23T02:47:48.979Z,0
2019-01-23T02:48:29.613Z,0
2019-01-23T02:49:10.226Z,0
2019-01-23T02:49:50.877Z,0
2019-01-23T02:50:31.476Z,0
2019-01-23T02:51:12.115Z,0
2019-01-23T02:51:52.716Z,0
2019-01-23T02:52:44.493Z,0
2019-01-23T02:53:25.154Z,0
2019-01-23T02:54:05.767Z,0
2019-01-23T02:54:46.362Z,0
2019-01-23T02:55:26.969Z,0
2019-01-23T02:56:07.577Z,0
2019-01-23T02:56:48.207Z,0
2019-01-23T02:57:28.825Z,0
2019-01-23T02:58:09.433Z,0
2019-01-23T02:58:50.045Z,0
2019-01-23T02:59:30.679Z,0
2019-01-23T03:00:11.302Z,0
2019-01-23T03:00:51.955Z,0
2019-01-23T03:01:32.553Z,0
2019-01-23T03:02:13.189Z,0
2019-01-23T03:02:53.805Z,0
2019-01-23T03:03:34.391Z,0
2019-01-23T03:04:15.011Z,0
2019-01-23T03:04:55.611Z,0
2019-01-23T03:05:36.245Z,0
2019-01-23T03:06:16.863Z,0
2019-01-23T03:06:57.473Z,0
2019-01-23T03:07:38.099Z,0
2019-01-23T03:08:18.705Z,0
2019-01-23T03:08:59.309Z,0
2019-01-23T03:09:39.911Z,0
2019-01-23T03:10:20.505Z,0
2019-01-23T03:11:01.113Z,0
2019-01-23T03:11:41.776Z,0
2019-01-23T03:12:22.392Z,0
2019-01-23T03:13:03.026Z,0
2019-01-23T03:13:43.655Z,0
2019-01-23T03:14:24.241Z,0
2019-01-23T03:15:04.839Z,0
2019-01-23T03:15:45.446Z,0
2019-01-23T03:16:26.046Z,0
2019-01-23T03:17:06.712Z,0
2019-01-23T03:17:47.320Z,0
2019-01-23T03:18:27.916Z,0
2019-01-23T03:19:08.524Z,0
2019-01-23T03:19:49.172Z,0
2019-01-23T03:20:29.787Z,0
2019-01-23T03:21:10.416Z,0
2019-01-23T03:21:51.042Z,0
2019-01-23T03:22:31.644Z,0
2019-01-23T03:23:12.241Z,0
2019-01-23T03:23:52.874Z,0
2019-01-23T03:24:33.473Z,0
2019-01-23T03:25:14.077Z,0
2019-01-23T03:25:54.692Z,0
2019-01-23T03:26:35.330Z,0
2019-01-23T03:27:15.965Z,0
2019-01-23T03:27:56.588Z,0
2019-01-23T03:28:37.206Z,0
2019-01-23T03:29:24.461Z,0
2019-01-23T03:29:58.417Z,0
2019-01-23T03:30:39.030Z,0
2019-01-23T03:31:19.665Z,0
2019-01-23T03:32:00.286Z,0
2019-01-23T03:32:40.900Z,0
2019-01-23T03:33:21.603Z,0
2019-01-23T03:34:02.201Z,0
2019-01-23T03:34:42.813Z,0
2019-01-23T03:35:23.414Z,0
2019-01-23T03:36:04.034Z,0
2019-01-23T03:36:44.626Z,0
2019-01-23T03:37:25.224Z,0
2019-01-23T03:38:05.836Z,0
2019-01-23T03:38:46.454Z,0
2019-01-23T03:39:27.052Z,0
2019-01-23T03:40:07.658Z,0
2019-01-23T03:40:48.252Z,0
2019-01-23T03:41:28.850Z,0
2019-01-23T03:42:09.452Z,0
2019-01-23T03:42:50.062Z,0
2019-01-23T03:43:30.656Z,0
2019-01-23T03:44:11.272Z,0
2019-01-23T03:44:51.886Z,0
2019-01-23T03:45:32.500Z,0
2019-01-23T03:46:13.118Z,0
2019-01-23T03:46:53.723Z,0
2019-01-23T03:47:34.322Z,0
2019-01-23T03:48:14.928Z,0
2019-01-23T03:48:55.598Z,0
2019-01-23T03:49:36.252Z,0
2019-01-23T03:50:16.862Z,0
2019-01-23T03:50:57.460Z,0
2019-01-23T03:51:38.070Z,0
2019-01-23T03:52:18.680Z,0
2019-01-23T03:52:59.283Z,0
2019-01-23T03:53:39.910Z,0
2019-01-23T03:54:20.499Z,0
2019-01-23T03:55:01.113Z,0
2019-01-23T03:55:41.742Z,0
2019-01-23T03:56:22.372Z,0
2019-01-23T03:57:02.980Z,0
2019-01-23T03:57:43.598Z,0
2019-01-23T03:58:24.204Z,0
2019-01-23T03:59:04.833Z,0
2019-01-23T03:59:45.440Z,0
2019-01-23T04:00:26.044Z,0
2019-01-23T04:01:06.656Z,0
2019-01-23T04:01:47.268Z,0
2019-01-23T04:02:27.900Z,0
2019-01-23T04:03:08.505Z,0
2019-01-23T04:03:49.130Z,0
2019-01-23T04:04:29.726Z,0
2019-01-23T04:05:10.357Z,0
2019-01-23T04:05:50.963Z,0
2019-01-23T04:06:31.594Z,0
2019-01-23T04:07:12.189Z,0
2019-01-23T04:07:52.830Z,0
2019-01-23T04:08:33.451Z,0
2019-01-23T04:09:14.074Z,0
2019-01-23T04:09:54.702Z,0
2019-01-23T04:10:35.308Z,0
2019-01-23T04:11:15.944Z,0
2019-01-23T04:11:56.554Z,0
2019-01-23T04:12:37.172Z,0
2019-01-23T04:13:17.820Z,0
2019-01-23T04:13:58.461Z,0
2019-01-23T04:14:39.078Z,0
2019-01-23T04:15:19.704Z,0
2019-01-23T04:16:00.308Z,0
2019-01-23T04:16:40.910Z,0
2019-01-23T04:17:21.517Z,0
2019-01-23T04:18:02.109Z,0
2019-01-23T04:18:42.762Z,0
2019-01-23T04:19:23.386Z,0
2019-01-23T04:20:04.004Z,0
2019-01-23T04:20:44.631Z,0
2019-01-23T04:21:25.256Z,0
2019-01-23T04:22:05.867Z,0
2019-01-23T04:22:46.482Z,0
2019-01-23T04:23:27.098Z,0
2019-01-23T04:24:07.724Z,0
2019-01-23T04:24:48.313Z,0
2019-01-23T04:25:28.941Z,0
2019-01-23T04:26:09.544Z,0
2019-01-23T04:26:50.156Z,0
2019-01-23T04:27:30.772Z,0
2019-01-23T04:28:11.367Z,0
2019-01-23T04:28:51.981Z,0
2019-01-23T04:29:39.258Z,0
2019-01-23T04:30:13.250Z,0
2019-01-23T04:30:53.873Z,0
2019-01-23T04:31:34.479Z,0
2019-01-23T04:32:15.089Z,0
2019-01-23T04:32:55.692Z,0
2019-01-23T04:33:36.330Z,0
2019-01-23T04:34:16.946Z,0
2019-01-23T04:34:57.560Z,0
2019-01-23T04:35:38.190Z,0
2019-01-23T04:36:18.839Z,0
2019-01-23T04:36:59.423Z,0
2019-01-23T04:37:40.043Z,0
2019-01-23T04:38:20.660Z,0
2019-01-23T04:39:01.258Z,0
2019-01-23T04:39:41.856Z,0
2019-01-23T04:40:22.464Z,0
2019-01-23T04:41:03.072Z,0
2019-01-23T04:41:43.699Z,0
2019-01-23T04:42:24.332Z,0
2019-01-23T04:43:04.956Z,0
2019-01-23T04:43:45.624Z,0
2019-01-23T04:44:26.259Z,0
2019-01-23T04:45:06.883Z,0
2019-01-23T04:45:47.509Z,0
2019-01-23T04:46:28.135Z,0
2019-01-23T04:47:08.746Z,0
2019-01-23T04:47:49.354Z,0
2019-01-23T04:48:29.976Z,0
2019-01-23T04:49:10.618Z,0
2019-01-23T04:49:51.232Z,0
2019-01-23T04:50:31.847Z,0
2019-01-23T04:51:12.447Z,0
2019-01-23T04:51:53.055Z,0
2019-01-23T04:52:33.662Z,0
2019-01-23T04:53:14.284Z,0
2019-01-23T04:53:54.937Z,0
2019-01-23T04:54:35.555Z,0
2019-01-23T04:55:16.164Z,0
2019-01-23T04:55:56.795Z,0
2019-01-23T04:56:37.404Z,0
2019-01-23T04:57:18.011Z,0
2019-01-23T04:57:58.623Z,0
2019-01-23T04:58:39.260Z,0
2019-01-23T04:59:19.912Z,0
2019-01-23T05:00:00.534Z,0
2019-01-23T05:00:41.138Z,0
2019-01-23T05:01:21.736Z,0
2019-01-23T05:02:02.334Z,0
2019-01-23T05:02:42.938Z,0
2019-01-23T05:03:23.536Z,0
2019-01-23T05:04:04.150Z,0
2019-01-23T05:04:44.778Z,0
2019-01-23T05:05:25.424Z,0
2019-01-23T05:06:06.038Z,0
2019-01-23T05:06:46.680Z,0
2019-01-23T05:07:27.288Z,0
2019-01-23T05:08:07.896Z,0
2019-01-23T05:08:48.508Z,0
2019-01-23T05:09:29.119Z,0
2019-01-23T05:10:09.768Z,0
2019-01-23T05:10:50.388Z,0
2019-01-23T05:11:31.026Z,0
2019-01-23T05:12:11.628Z,0
2019-01-23T05:12:52.270Z,0
2019-01-23T05:13:32.872Z,0
2019-01-23T05:14:13.481Z,0
2019-01-23T05:14:54.082Z,0
2019-01-23T05:15:34.723Z,0
2019-01-23T05:16:15.352Z,0
2019-01-23T05:16:55.982Z,0
2019-01-23T05:17:36.578Z,0
2019-01-23T05:18:17.184Z,0
2019-01-23T05:18:57.794Z,0
2019-01-23T05:19:38.405Z,0
2019-01-23T05:20:19.032Z,0
2019-01-23T05:20:59.640Z,0
2019-01-23T05:21:40.263Z,0
2019-01-23T05:22:20.886Z,0
2019-01-23T05:23:01.508Z,0
2019-01-23T05:23:42.121Z,0
2019-01-23T05:24:22.747Z,0
2019-01-23T05:25:03.360Z,0
2019-01-23T05:25:43.984Z,0
2019-01-23T05:26:24.570Z,0
2019-01-23T05:27:05.186Z,0
2019-01-23T05:27:45.800Z,0
2019-01-23T05:28:26.427Z,0
2019-01-23T05:29:07.035Z,0
2019-01-23T05:29:54.575Z,0
2019-01-23T05:30:28.243Z,0
2019-01-23T05:31:08.863Z,0
2019-01-23T05:31:49.464Z,0
2019-01-23T05:32:30.078Z,0
2019-01-23T05:33:10.684Z,0
2019-01-23T05:33:51.285Z,0
2019-01-23T05:34:31.901Z,0
2019-01-23T05:35:12.498Z,0
2019-01-23T05:35:53.118Z,0
2019-01-23T05:36:33.750Z,0
2019-01-23T05:37:14.341Z,0
2019-01-23T05:37:54.950Z,0
2019-01-23T05:38:35.547Z,0
2019-01-23T05:39:16.174Z,0
2019-01-23T05:39:56.788Z,0
2019-01-23T05:40:37.402Z,0
2019-01-23T05:41:18.023Z,0
2019-01-23T05:41:58.621Z,0
2019-01-23T05:42:39.244Z,0
2019-01-23T05:43:19.845Z,0
2019-01-23T05:44:00.464Z,0
2019-01-23T05:44:41.115Z,0
2019-01-23T05:45:21.726Z,0
2019-01-23T05:46:02.337Z,0
2019-01-23T05:46:42.963Z,0
2019-01-23T05:47:23.576Z,0
2019-01-23T05:48:04.178Z,0
2019-01-23T05:48:44.789Z,0
2019-01-23T05:49:25.394Z,0
2019-01-23T05:50:06.015Z,0
2019-01-23T05:50:46.649Z,0
2019-01-23T05:51:27.241Z,0
2019-01-23T05:52:07.851Z,0
2019-01-23T05:52:48.480Z,0
2019-01-23T05:53:29.093Z,0
2019-01-23T05:54:09.723Z,0
2019-01-23T05:54:50.351Z,0
2019-01-23T05:55:30.967Z,0
2019-01-23T05:56:11.592Z,0
2019-01-23T05:56:52.195Z,0
2019-01-23T05:57:32.823Z,0
2019-01-23T05:58:13.424Z,0
2019-01-23T05:58:54.037Z,0
2019-01-23T05:59:34.651Z,0
2019-01-23T06:00:15.279Z,0
2019-01-23T06:00:55.896Z,0
2019-01-23T06:01:36.524Z,0
2019-01-23T06:02:17.120Z,0
2019-01-23T06:02:57.741Z,0
2019-01-23T06:03:38.357Z,0
2019-01-23T06:04:18.982Z,0
2019-01-23T06:04:59.634Z,0
2019-01-23T06:05:40.249Z,0
2019-01-23T06:06:20.875Z,0
2019-01-23T06:07:01.484Z,0
2019-01-23T06:07:42.158Z,0
2019-01-23T06:08:22.786Z,0
2019-01-23T06:09:03.403Z,0
2019-01-23T06:09:44.016Z,0
2019-01-23T06:10:24.653Z,0
2019-01-23T06:11:05.259Z,0
2019-01-23T06:11:45.873Z,0
2019-01-23T06:12:26.463Z,0
2019-01-23T06:13:07.063Z,0
2019-01-23T06:13:47.671Z,0
2019-01-23T06:14:28.274Z,0
2019-01-23T06:15:08.882Z,0
2019-01-23T06:15:49.482Z,0
2019-01-23T06:16:30.085Z,0
2019-01-23T06:17:10.712Z,0
2019-01-23T06:17:51.319Z,0
2019-01-23T06:18:31.961Z,0
2019-01-23T06:19:12.578Z,0
2019-01-23T06:19:53.187Z,0
2019-01-23T06:20:33.811Z,0
2019-01-23T06:21:14.439Z,0
2019-01-23T06:21:55.052Z,0
2019-01-23T06:22:35.663Z,0
2019-01-23T06:23:16.318Z,0
2019-01-23T06:23:56.932Z,0
2019-01-23T06:24:37.569Z,0
2019-01-23T06:25:18.174Z,0
2019-01-23T06:25:58.903Z,0
2019-01-23T06:26:39.576Z,0
2019-01-23T06:27:20.224Z,0
2019-01-23T06:28:00.839Z,0
2019-01-23T06:28:41.455Z,0
2019-01-23T06:29:22.054Z,0
2019-01-23T06:30:10.035Z,0
2019-01-23T06:30:43.337Z,0
2019-01-23T06:31:23.942Z,0
2019-01-23T06:32:04.551Z,0
2019-01-23T06:32:45.172Z,0
2019-01-23T06:33:25.774Z,0
2019-01-23T06:34:06.391Z,0
2019-01-23T06:34:47.026Z,0
2019-01-23T06:35:27.640Z,0
2019-01-23T06:36:08.279Z,0
2019-01-23T06:36:48.892Z,0
2019-01-23T06:37:29.497Z,0
2019-01-23T06:38:10.094Z,0
2019-01-23T06:38:50.690Z,0
2019-01-23T06:39:31.357Z,0
2019-01-23T06:40:11.940Z,0
2019-01-23T06:40:52.537Z,0
2019-01-23T06:41:33.143Z,0
2019-01-23T06:42:13.762Z,0
2019-01-23T06:42:54.384Z,0
2019-01-23T06:43:34.998Z,0
2019-01-23T06:44:15.585Z,0
2019-01-23T06:44:56.196Z,0
2019-01-23T06:45:36.803Z,0
2019-01-23T06:46:17.419Z,0
2019-01-23T06:46:58.041Z,0
2019-01-23T06:47:38.641Z,0
2019-01-23T06:48:19.261Z,0
2019-01-23T06:48:59.879Z,0
2019-01-23T06:49:40.485Z,0
2019-01-23T06:50:21.085Z,0
2019-01-23T06:51:01.712Z,0
2019-01-23T06:51:42.382Z,0
2019-01-23T06:52:22.983Z,0
2019-01-23T06:53:03.605Z,0
2019-01-23T06:53:44.295Z,0
2019-01-23T06:54:24.943Z,0
2019-01-23T06:55:05.591Z,0
2019-01-23T06:55:46.212Z,0
2019-01-23T06:56:26.811Z,0
2019-01-23T06:57:07.415Z,0
2019-01-23T06:57:48.029Z,0
2019-01-23T06:58:28.633Z,0
2019-01-23T06:59:09.249Z,0
2019-01-23T06:59:49.855Z,0
2019-01-23T07:00:30.458Z,0
2019-01-23T07:01:11.075Z,0
2019-01-23T07:01:51.687Z,4
2019-01-23T07:02:32.284Z,4
2019-01-23T07:03:12.891Z,0
2019-01-23T07:03:53.497Z,0
2019-01-23T07:04:34.126Z,4
2019-01-23T07:05:14.733Z,4
2019-01-23T07:05:55.350Z,0
2019-01-23T07:06:35.943Z,4
2019-01-23T07:07:16.553Z,4
2019-01-23T07:07:57.168Z,4
2019-01-23T07:08:37.767Z,0
2019-01-23T07:09:18.388Z,4
2019-01-23T07:09:59.050Z,4
2019-01-23T07:10:39.655Z,4
2019-01-23T07:11:20.258Z,4
2019-01-23T07:12:00.857Z,8
2019-01-23T07:12:41.457Z,4
2019-01-23T07:13:22.060Z,8
2019-01-23T07:14:02.673Z,4
2019-01-23T07:14:43.269Z,8
2019-01-23T07:15:23.881Z,8
2019-01-23T07:16:04.513Z,12
2019-01-23T07:16:45.115Z,8
2019-01-23T07:17:25.723Z,12
2019-01-23T07:18:06.321Z,12
2019-01-23T07:18:46.965Z,12
2019-01-23T07:19:27.595Z,16
2019-01-23T07:20:08.228Z,16
2019-01-23T07:20:48.831Z,20
2019-01-23T07:21:29.443Z,16
2019-01-23T07:22:10.068Z,20
2019-01-23T07:22:50.687Z,20
2019-01-23T07:23:31.301Z,20
2019-01-23T07:24:11.931Z,24
2019-01-23T07:24:52.553Z,24
2019-01-23T07:25:33.201Z,28
2019-01-23T07:26:13.859Z,32
2019-01-23T07:26:54.455Z,36
2019-01-23T07:27:35.061Z,36
2019-01-23T07:28:15.660Z,44
2019-01-23T07:28:56.264Z,48
2019-01-23T07:29:36.861Z,52
2019-01-23T07:30:23.964Z,56
2019-01-23T07:30:58.073Z,48
2019-01-23T07:31:38.677Z,48
2019-01-23T07:32:19.290Z,48
2019-01-23T07:32:59.879Z,52
2019-01-23T07:33:40.507Z,56
2019-01-23T07:34:21.121Z,56
2019-01-23T07:35:01.745Z,56
2019-01-23T07:35:42.340Z,56
2019-01-23T07:36:23.507Z,60
2019-01-23T07:37:03.551Z,60
2019-01-23T07:37:44.180Z,60
2019-01-23T07:38:24.859Z,60
2019-01-23T07:39:05.503Z,68
2019-01-23T07:39:46.113Z,72
2019-01-23T07:40:26.733Z,80
2019-01-23T07:41:07.321Z,92
2019-01-23T07:41:48.015Z,100
2019-01-23T07:42:28.615Z,100
2019-01-23T07:43:09.225Z,104
2019-01-23T07:43:49.843Z,108
2019-01-23T07:44:30.433Z,112
2019-01-23T07:45:11.034Z,124
2019-01-23T07:45:51.634Z,140
2019-01-23T07:46:32.247Z,156
2019-01-23T07:47:12.849Z,176
2019-01-23T07:47:53.459Z,192
2019-01-23T07:48:34.080Z,196
2019-01-23T07:49:14.681Z,192
2019-01-23T07:49:55.283Z,188
2019-01-23T07:50:35.905Z,196
2019-01-23T07:51:16.531Z,204
2019-01-23T07:51:57.139Z,212
2019-01-23T07:52:37.746Z,216
2019-01-23T07:53:18.363Z,220
2019-01-23T07:53:59.111Z,216
2019-01-23T07:54:41.787Z,228
2019-01-23T07:55:22.539Z,228
2019-01-23T07:56:03.251Z,228
2019-01-23T07:56:43.877Z,224
2019-01-23T07:57:24.493Z,216
2019-01-23T07:58:05.113Z,232
2019-01-23T07:58:45.739Z,256
2019-01-23T07:59:26.363Z,260
2019-01-23T08:00:06.973Z,264
2019-01-23T08:00:47.581Z,280
2019-01-23T08:01:28.193Z,296
2019-01-23T08:02:08.811Z,292
2019-01-23T08:02:49.431Z,288
2019-01-23T08:03:30.049Z,300
2019-01-23T08:04:10.645Z,288
2019-01-23T08:04:51.259Z,284
2019-01-23T08:05:31.953Z,292
2019-01-23T08:06:12.576Z,308
2019-01-23T08:06:53.225Z,320
2019-01-23T08:07:33.853Z,332
2019-01-23T08:08:14.509Z,328
2019-01-23T08:08:55.119Z,312
2019-01-23T08:09:35.734Z,304
2019-01-23T08:10:16.357Z,296
2019-01-23T08:10:56.997Z,296
2019-01-23T08:11:37.625Z,308
2019-01-23T08:12:18.243Z,308
2019-01-23T08:12:58.853Z,292
2019-01-23T08:13:39.489Z,284
2019-01-23T08:14:20.093Z,276
2019-01-23T08:15:00.703Z,268
2019-01-23T08:15:41.304Z,260
2019-01-23T08:16:21.915Z,260
2019-01-23T08:17:02.523Z,260
2019-01-23T08:17:43.129Z,256
2019-01-23T08:18:23.753Z,268
2019-01-23T08:19:04.369Z,268
2019-01-23T08:19:44.977Z,264
2019-01-23T08:20:25.585Z,280
2019-01-23T08:21:06.215Z,284
2019-01-23T08:21:46.815Z,296
2019-01-23T08:22:27.441Z,304
2019-01-23T08:23:08.074Z,308
2019-01-23T08:23:48.674Z,320
2019-01-23T08:24:29.283Z,348
2019-01-23T08:25:09.929Z,352
2019-01-23T08:25:50.531Z,360
2019-01-23T08:26:31.132Z,368
2019-01-23T08:27:11.749Z,372
2019-01-23T08:27:52.355Z,372
2019-01-23T08:28:32.965Z,372
2019-01-23T08:29:13.564Z,364
2019-01-23T08:29:54.174Z,356
2019-01-23T08:30:38.793Z,360
2019-01-23T08:31:15.387Z,372
2019-01-23T08:31:55.985Z,384
2019-01-23T08:32:36.635Z,392
2019-01-23T08:33:17.245Z,392
2019-01-23T08:33:57.893Z,392
2019-01-23T08:34:38.519Z,396
2019-01-23T08:35:19.124Z,424
2019-01-23T08:35:59.721Z,436
2019-01-23T08:36:40.337Z,440
2019-01-23T08:37:20.957Z,444
2019-01-23T08:38:01.565Z,456
2019-01-23T08:38:42.179Z,464
2019-01-23T08:39:22.774Z,452
2019-01-23T08:40:03.384Z,480
2019-01-23T08:40:44.027Z,480
2019-01-23T08:41:24.649Z,476
2019-01-23T08:42:05.249Z,472
2019-01-23T08:42:45.850Z,480
2019-01-23T08:43:26.455Z,480
2019-01-23T08:44:07.077Z,484
2019-01-23T08:44:47.705Z,472
2019-01-23T08:45:28.312Z,456
2019-01-23T08:46:08.947Z,456
2019-01-23T08:46:49.547Z,456
2019-01-23T08:47:30.145Z,460
2019-01-23T08:48:10.751Z,456
2019-01-23T08:48:51.362Z,444
2019-01-23T08:49:31.975Z,452
2019-01-23T08:50:12.587Z,452
2019-01-23T08:50:53.191Z,456
2019-01-23T08:51:33.821Z,468
2019-01-23T08:52:14.435Z,464
2019-01-23T08:52:55.074Z,460
2019-01-23T08:53:35.683Z,456
2019-01-23T08:54:16.293Z,464
2019-01-23T08:54:56.909Z,492
2019-01-23T08:55:37.533Z,496
2019-01-23T08:56:18.167Z,504
2019-01-23T08:56:58.773Z,508
2019-01-23T08:57:39.413Z,512
2019-01-23T08:58:20.029Z,520
2019-01-23T08:59:00.643Z,512
2019-01-23T08:59:41.245Z,496
2019-01-23T09:00:21.863Z,468
2019-01-23T09:01:02.514Z,400
2019-01-23T09:01:43.145Z,460
2019-01-23T09:02:23.747Z,456
2019-01-23T09:03:04.373Z,452
2019-01-23T09:03:44.964Z,472
2019-01-23T09:04:25.569Z,508
2019-01-23T09:05:06.183Z,540
2019-01-23T09:05:46.795Z,564
2019-01-23T09:06:27.434Z,588
2019-01-23T09:07:08.026Z,596
2019-01-23T09:07:48.641Z,596
2019-01-23T09:08:29.247Z,600
2019-01-23T09:09:09.854Z,588
2019-01-23T09:09:50.459Z,592
2019-01-23T09:10:31.112Z,532
2019-01-23T09:11:11.728Z,572
2019-01-23T09:11:52.375Z,532
2019-01-23T09:12:33.035Z,536
2019-01-23T09:13:13.623Z,520
2019-01-23T09:13:54.297Z,508
2019-01-23T09:14:34.941Z,512
2019-01-23T09:15:15.557Z,528
2019-01-23T09:15:56.157Z,516
2019-01-23T09:16:36.812Z,568
2019-01-23T09:17:17.421Z,580
2019-01-23T09:17:58.031Z,568
2019-01-23T09:18:38.637Z,572
2019-01-23T09:19:19.244Z,592
2019-01-23T09:19:59.856Z,592
2019-01-23T09:20:40.468Z,624
2019-01-23T09:21:21.083Z,628
2019-01-23T09:22:01.697Z,620
2019-01-23T09:22:42.311Z,596
2019-01-23T09:23:22.932Z,600
2019-01-23T09:24:03.538Z,640
2019-01-23T09:24:44.157Z,608
2019-01-23T09:25:24.781Z,612
2019-01-23T09:26:05.394Z,508
2019-01-23T09:26:45.999Z,484
2019-01-23T09:27:26.621Z,664
2019-01-23T09:28:07.229Z,608
2019-01-23T09:28:47.840Z,588
2019-01-23T09:29:28.471Z,664
2019-01-23T09:30:09.119Z,676
2019-01-23T09:30:52.673Z,616
2019-01-23T09:31:30.376Z,656
2019-01-23T09:32:10.975Z,652
2019-01-23T09:32:51.582Z,656
2019-01-23T09:33:32.191Z,672
2019-01-23T09:34:12.813Z,680
2019-01-23T09:34:53.431Z,696
2019-01-23T09:35:34.068Z,752
2019-01-23T09:36:14.693Z,744
2019-01-23T09:36:55.287Z,756
2019-01-23T09:37:35.889Z,748
2019-01-23T09:38:16.531Z,668
2019-01-23T09:38:57.143Z,720
2019-01-23T09:39:37.746Z,632
2019-01-23T09:40:18.355Z,740
2019-01-23T09:40:59.001Z,752
2019-01-23T09:41:39.603Z,732
2019-01-23T09:42:20.203Z,784
2019-01-23T09:43:00.801Z,744
2019-01-23T09:43:41.407Z,728
2019-01-23T09:44:22.009Z,724
2019-01-23T09:45:02.609Z,768
2019-01-23T09:45:43.221Z,708
2019-01-23T09:46:23.831Z,712
2019-01-23T09:47:04.437Z,760
2019-01-23T09:47:45.035Z,792
2019-01-23T09:48:25.661Z,792
2019-01-23T09:49:06.265Z,588
2019-01-23T09:49:46.877Z,768
2019-01-23T09:50:27.476Z,648
2019-01-23T09:51:08.089Z,620
2019-01-23T09:51:48.699Z,616